SMZO/ORG METAR and TAF weather

Enter ICAO airport designator
Station Type Date Time Source
SMZO METAR 2020/02/19 11:00 UTC NOAA

SMZO 191100Z 05006KT 9999 VCSH SCT012 BKN030 25/21 Q1013 NOSIG


Station Type Date Time Source
SMZO Decoded METAR 2020/02/19 11:00 UTC NOAA

Station name not available
Feb 19, 2020 - 06:00 AM EST / 2020.02.19 1100 UTC
Wind: from the NE (050 degrees) at 7 MPH (6 KT):0
Visibility: greater than 7 mile(s):0
Sky conditions: mostly cloudy
Weather: showers in the vicinity
Temperature: 77 F (25 C)
Dew Point: 69 F (21 C)
Relative Humidity: 78%
Pressure (altimeter): 29.91 in. Hg (1013 hPa)
ob: SMZO 191100Z 05006KT 9999 VCSH SCT012 BKN030 25/21 Q1013 NOSIG
cycle: 11

Station Type Date Time Source
SMZO TAF 2020/02/19 12:12 UTC NOAA

TAF TAF SMZO 191000Z 1912/2012 07010KT 9999 SCT020 TX32/1918Z TN23/2009Z
BECMG 1922/2000 04005KT CAVOK

Example: see airport list